Flight Track Log - Related Links

Times and Time Zones

All times are in EST time to prevent confusion due to time zone crossing. See the SKW361J flight status page for this flight to view local times or setup timezone preferences in your user account.

Time Position Orientation Groundspeed Altitude Reporting Facility
EST Latitude Longitude Course Direction KTS MPH feet Rate Location/Type
Wed 07:53:51 PM 33.9167 -118.4500 139° Southeast 176 203 1,900  Level Southern California TRACON
Wed 07:54:51 PM 33.8667 -118.4667 195° South 204 235 3,500 1,750 Climbing Southern California TRACON
Wed 07:55:51 PM 33.8167 -118.4667 180° South 203 234 5,400 1,850 Climbing Southern California TRACON
Wed 07:56:51 PM 33.7500 -118.4667 180° South 215 247 7,200 1,774 Climbing Southern California TRACON
Wed 07:57:46 PM 33.7167 -118.4167 129° Southeast 221 254 8,800 991 Climbing Southern California TRACON
Wed 07:58:46 PM 33.6667 -118.3500 132° Southeast 270 311 9,100 198 Climbing Southern California TRACON
Wed 07:59:00 PM 33.6422 -118.1012 139° Southeast  Level Estimated
Wed 07:59:17 PM 33.6478 -118.3278 136° Southeast 265 305 9,100  Level Los Angeles Center
Wed 08:00:19 PM 33.5886 -118.2414 129° Southeast 278 320 9,100  Level Los Angeles Center
Wed 08:01:21 PM 33.5408 -118.1700 129° Southeast 278 320 9,100  Level Los Angeles Center
Wed 08:02:24 PM 33.4919 -118.0981 129° Southeast 278 320 9,100  Level Los Angeles Center
Wed 08:03:26 PM 33.4442 -118.0256 128° Southeast 278 320 9,100  Level Los Angeles Center
Wed 08:04:28 PM 33.3986 -117.9517 126° Southeast 278 320 9,100  Level Los Angeles Center
Wed 08:05:30 PM 33.3575 -117.8625 119° Southeast 261 300 9,100  Level Los Angeles Center
Wed 08:06:32 PM 33.3231 -117.7903 120° Southeast 254 292 9,100  Level Los Angeles Center
Wed 08:07:34 PM 33.2853 -117.7172 122° Southeast 257 296 9,100  Level Los Angeles Center
Wed 08:08:36 PM 33.2242 -117.6589 141° Southeast 274 315 9,100  Level Los Angeles Center
Wed 08:09:38 PM 33.1633 -117.6033 143° Southeast 276 318 9,100  Level Los Angeles Center
Wed 08:10:40 PM 33.1056 -117.5450 140° Southeast 276 318 9,100  Level Los Angeles Center
Wed 08:11:42 PM 33.0450 -117.4628 131° Southeast 275 316 9,100 -194 Level Los Angeles Center
Wed 08:12:44 PM 32.9950 -117.3942 131° Southeast 274 315 8,700 -504 Descending Los Angeles Center
Wed 08:13:53 PM 32.9333 -117.3000 128° Southeast 290 334 8,000 -605 Descending Southern California TRACON
Wed 08:14:53 PM 32.8833 -117.2333 132° Southeast 290 334 7,400 -800 Descending Southern California TRACON
Wed 08:15:53 PM 32.8167 -117.1667 140° Southeast 295 339 6,400 -1,160 Descending Southern California TRACON
Wed 08:16:52 PM 32.7750 -117.1003 127° Southeast 278 320 5,100 -1,041 Descending Los Angeles Center
Wed 08:17:54 PM 32.7464 -117.0436 121° Southeast 243 280 4,300 -1,289 Descending Los Angeles Center
Wed 08:18:53 PM 32.7167 -117.0833 228° Southwest 208 239 2,500 -1,664 Descending Southern California TRACON
Wed 08:19:53 PM 32.7167 -117.1500 270° West 175 201 1,000 -1,031 Descending Southern California TRACON
Wed 08:21:01 PM 32.7353 -117.1939 297° West 173 199 300 -618 Descending Los Angeles Center

Login

Don't have an account? Register now (free) for customized features, flight alerts, and more!